Time;durP1;ratioP1;P1;durP2;ratioP2;P2;SDS_P1;SDS_P2;PMS_P1;PMS_P2;Temp;Humidity;BMP_temperature;BMP_pressure;BME280_temperature;BME280_humidity;BME280_pressure;Samples;Min_cycle;Max_cycle;Signal;HPM_P1;HPM_P2
2023/11/06 00:02:28;;;;;;;5.22;1.80;;;;;11.10;96906.00;;;;5031557;28;20529;-65
2023/11/06 00:04:57;;;;;;;11.50;2.28;;;;;11.10;96921.00;;;;5030794;28;20064;-65
2023/11/06 00:07:24;;;;;;;7.47;2.20;;;;;11.10;96920.00;;;;5030337;28;20483;-65
2023/11/06 00:09:51;;;;;;;4.80;1.23;;;;;11.10;96918.00;;;;5030193;28;20418;-65
2023/11/06 00:12:17;;;;;;;5.78;1.65;;;;;11.10;96916.00;;;;5031312;28;20506;-65
2023/11/06 00:14:45;;;;;;;5.93;2.20;;;;;11.10;96914.00;;;;5030796;28;20557;-66
2023/11/06 00:17:11;;;;;;;8.77;2.25;;;;;11.10;96918.00;;;;5031393;28;20045;-65
2023/11/06 00:19:38;;;;;;;6.65;2.05;;;;;11.10;96912.00;;;;5031209;28;20498;-65
2023/11/06 00:22:06;;;;;;;4.85;1.63;;;;;11.10;96922.00;;;;5031033;28;20328;-64
2023/11/06 00:24:32;;;;;;;7.95;2.75;;;;;11.10;96923.00;;;;5029544;28;20052;-64
2023/11/06 00:26:59;;;;;;;10.15;2.40;;;;;11.10;96924.00;;;;5031482;28;20053;-65
2023/11/06 00:29:29;;;;;;;8.05;1.92;;;;;11.10;96926.00;;;;5035070;28;20041;-65
2023/11/06 00:31:56;;;;;;;8.95;1.88;;;;;11.10;96930.00;;;;5034990;28;20045;-65
2023/11/06 00:34:23;;;;;;;9.40;2.38;;;;;11.10;96928.00;;;;5032965;28;20053;-65
2023/11/06 00:36:50;;;;;;;6.72;2.00;;;;;11.10;96925.00;;;;5033531;28;20077;-65
2023/11/06 00:39:16;;;;;;;7.30;1.80;;;;;11.10;96920.00;;;;5034567;28;20457;-65
2023/11/06 00:41:43;;;;;;;6.82;1.58;;;;;11.10;96930.00;;;;5034632;28;20474;-65
2023/11/06 00:44:09;;;;;;;7.00;1.52;;;;;11.10;96920.00;;;;5034035;28;20034;-64
2023/11/06 00:46:36;;;;;;;8.85;2.67;;;;;11.10;96937.00;;;;5034742;28;20103;-64
2023/11/06 00:49:03;;;;;;;5.22;1.63;;;;;11.10;96936.00;;;;5033201;28;20064;-65
2023/11/06 00:51:29;;;;;;;5.63;2.13;;;;;11.10;96936.00;;;;5033547;28;20480;-64
2023/11/06 00:53:56;;;;;;;6.00;1.58;;;;;11.10;96942.00;;;;5040706;28;20490;-64
2023/11/06 00:56:23;;;;;;;3.35;1.65;;;;;11.10;96958.00;;;;5039238;28;20410;-65
2023/11/06 00:58:49;;;;;;;14.00;2.72;;;;;11.10;96958.00;;;;5036422;28;20530;-65
2023/11/06 01:01:16;;;;;;;7.95;2.10;;;;;11.10;96958.00;;;;5037345;28;20060;-64
2023/11/06 01:03:43;;;;;;;6.30;1.58;;;;;11.20;96951.00;;;;5035471;28;20049;-65
2023/11/06 01:06:10;;;;;;;7.22;1.77;;;;;11.20;96953.00;;;;5037056;28;20045;-65
2023/11/06 01:08:36;;;;;;;5.05;1.73;;;;;11.20;96960.00;;;;5033877;28;20048;-65
2023/11/06 01:11:03;;;;;;;8.45;1.85;;;;;11.20;96945.00;;;;5033042;28;20165;-65
2023/11/06 01:13:30;;;;;;;4.78;1.50;;;;;11.20;96962.00;;;;5033649;28;20124;-63
2023/11/06 01:15:57;;;;;;;5.95;1.58;;;;;11.20;96948.00;;;;5034199;28;20052;-65
2023/11/06 01:18:24;;;;;;;9.07;1.77;;;;;11.20;96959.00;;;;5033845;28;20069;-65
2023/11/06 01:20:51;;;;;;;9.93;2.30;;;;;11.20;96957.00;;;;5032465;28;20148;-64
2023/11/06 01:23:17;;;;;;;6.25;1.95;;;;;11.20;96976.00;;;;5033955;28;20037;-65
2023/11/06 01:25:45;;;;;;;5.35;1.80;;;;;11.20;96964.00;;;;5031961;28;20396;-65
2023/11/06 01:28:12;;;;;;;8.18;1.67;;;;;11.20;96973.00;;;;5032539;28;20411;-65
2023/11/06 01:30:39;;;;;;;8.25;1.80;;;;;11.20;96978.00;;;;5033763;28;20046;-64
2023/11/06 01:33:06;;;;;;;8.07;1.88;;;;;11.20;96973.00;;;;5033593;28;20033;-65
2023/11/06 01:35:32;;;;;;;12.32;2.10;;;;;11.10;96979.00;;;;5031865;28;20121;-65
2023/11/06 01:38:01;;;;;;;5.28;1.25;;;;;11.10;96978.00;;;;5032344;28;20076;-65
2023/11/06 01:40:30;;;;;;;5.90;1.50;;;;;11.00;96983.00;;;;5032520;28;20503;-65
2023/11/06 01:43:04;;;;;;;5.85;1.50;;;;;11.00;96998.00;;;;5033531;28;20077;-64
2023/11/06 01:45:33;;;;;;;3.92;1.20;;;;;11.00;97004.00;;;;5031669;28;20042;-65
2023/11/06 01:48:01;;;;;;;4.97;1.63;;;;;10.90;97003.00;;;;5032096;28;20143;-65
2023/11/06 01:50:31;;;;;;;3.88;1.08;;;;;10.90;97012.00;;;;5032100;28;20124;-65
2023/11/06 01:53:01;;;;;;;3.20;1.05;;;;;10.80;97026.00;;;;5033233;28;20042;-65
2023/11/06 01:55:28;;;;;;;4.75;1.10;;;;;10.80;97024.00;;;;5031430;28;20140;-65
2023/11/06 01:57:55;;;;;;;0.98;0.80;;;;;10.70;97033.00;;;;5031884;28;20045;-65
2023/11/06 02:00:23;;;;;;;3.67;0.93;;;;;10.70;97043.00;;;;5031727;28;20049;-63
2023/11/06 02:02:50;;;;;;;1.65;0.70;;;;;10.60;97040.00;;;;5015736;28;20088;-64
2023/11/06 02:05:17;;;;;;;3.60;0.95;;;;;10.50;97056.00;;;;5031122;28;20455;-65
2023/11/06 02:07:47;;;;;;;2.63;0.77;;;;;10.50;97042.00;;;;5033051;28;20041;-64
2023/11/06 02:10:17;;;;;;;2.60;0.65;;;;;10.50;97036.00;;;;5032153;28;20053;-65
2023/11/06 02:12:44;;;;;;;3.30;0.93;;;;;10.50;97037.00;;;;5032036;28;20103;-64
2023/11/06 02:15:14;;;;;;;3.20;1.02;;;;;10.50;97042.00;;;;5031270;28;20042;-64
2023/11/06 02:17:44;;;;;;;2.05;0.70;;;;;10.60;97039.00;;;;5031709;28;20049;-65
2023/11/06 02:20:11;;;;;;;6.90;0.88;;;;;10.60;97038.00;;;;5033012;28;20037;-64
2023/11/06 02:22:43;;;;;;;2.05;0.70;;;;;10.60;97049.00;;;;5032939;28;20521;-64
2023/11/06 02:25:10;;;;;;;4.13;0.70;;;;;10.60;97047.00;;;;5032128;28;20063;-65
2023/11/06 02:27:40;;;;;;;1.52;0.68;;;;;10.60;97053.00;;;;5031321;28;20512;-65
2023/11/06 02:30:08;;;;;;;3.88;1.10;;;;;10.50;97043.00;;;;5032603;28;20099;-65
2023/11/06 02:32:35;;;;;;;3.60;1.10;;;;;10.50;97055.00;;;;5032485;28;20613;-65
2023/11/06 02:35:02;;;;;;;7.03;1.00;;;;;10.50;97065.00;;;;5030623;28;20052;-65
2023/11/06 02:37:28;;;;;;;2.33;0.85;;;;;10.50;97060.00;;;;5032527;28;20042;-63
2023/11/06 02:39:55;;;;;;;4.50;1.23;;;;;10.60;97073.00;;;;5031005;28;20049;-65
2023/11/06 02:42:21;;;;;;;5.05;2.08;;;;;10.60;97067.00;;;;5031106;28;20055;-65
2023/11/06 02:44:48;;;;;;;4.05;1.10;;;;;10.60;97066.00;;;;5030652;28;20099;-65
2023/11/06 02:47:15;;;;;;;5.55;1.75;;;;;10.60;97078.00;;;;5014885;28;20061;-63
2023/11/06 02:49:41;;;;;;;4.28;1.45;;;;;10.70;97084.00;;;;5032075;28;20041;-65
2023/11/06 02:52:08;;;;;;;5.28;1.55;;;;;10.70;97079.00;;;;5030920;28;20461;-65
2023/11/06 02:54:35;;;;;;;3.58;1.40;;;;;10.70;97088.00;;;;5031589;28;20129;-65
2023/11/06 02:57:04;;;;;;;3.42;1.15;;;;;10.70;97089.00;;;;5030893;28;20049;-65
2023/11/06 02:59:32;;;;;;;4.65;1.45;;;;;10.70;97089.00;;;;5032168;28;20049;-65
2023/11/06 03:01:59;;;;;;;3.60;1.27;;;;;10.70;97083.00;;;;5031010;28;20490;-64
2023/11/06 03:04:27;;;;;;;2.92;1.10;;;;;10.70;97093.00;;;;5030266;28;20045;-64
2023/11/06 03:06:54;;;;;;;3.50;1.17;;;;;10.70;97089.00;;;;5032145;28;20099;-64
2023/11/06 03:09:20;;;;;;;7.82;1.88;;;;;10.70;97096.00;;;;5032149;28;20489;-65
2023/11/06 03:11:47;;;;;;;9.00;1.48;;;;;10.70;97106.00;;;;5032239;28;20072;-66
2023/11/06 03:14:14;;;;;;;5.07;1.27;;;;;10.70;97112.00;;;;5030145;28;20128;-65
2023/11/06 03:16:41;;;;;;;6.85;1.50;;;;;10.70;97105.00;;;;5032012;28;20486;-66
2023/11/06 03:19:08;;;;;;;8.73;1.55;;;;;10.70;97098.00;;;;5031749;28;20458;-65
2023/11/06 03:21:34;;;;;;;6.15;1.50;;;;;10.70;97109.00;;;;5032010;28;20047;-65
2023/11/06 03:24:01;;;;;;;7.28;1.50;;;;;10.70;97120.00;;;;5031608;28;20111;-65
2023/11/06 03:26:28;;;;;;;4.80;1.50;;;;;10.60;97111.00;;;;5030585;28;20048;-63
2023/11/06 03:28:55;;;;;;;5.47;1.85;;;;;10.60;97124.00;;;;5032861;28;20041;-65
2023/11/06 03:31:21;;;;;;;7.65;1.83;;;;;10.70;97109.00;;;;5032410;28;20490;-65
2023/11/06 03:33:48;;;;;;;7.85;1.30;;;;;10.60;97117.00;;;;5029883;28;20136;-65
2023/11/06 03:36:14;;;;;;;6.40;1.23;;;;;10.60;97126.00;;;;5030433;28;20065;-65
2023/11/06 03:38:41;;;;;;;7.13;1.50;;;;;10.60;97132.00;;;;5030456;28;20414;-65
2023/11/06 03:41:07;;;;;;;6.47;1.60;;;;;10.70;97138.00;;;;5031729;28;20521;-66
2023/11/06 03:43:34;;;;;;;6.97;1.40;;;;;10.70;97130.00;;;;5013475;28;20491;-64
2023/11/06 03:46:02;;;;;;;4.07;1.42;;;;;10.70;97136.00;;;;5031761;28;20123;-65
2023/11/06 03:48:30;;;;;;;8.07;1.50;;;;;10.70;97142.00;;;;5030418;28;20156;-66
2023/11/06 03:50:57;;;;;;;5.68;1.30;;;;;10.70;97145.00;;;;5030545;28;20464;-65
2023/11/06 03:53:24;;;;;;;5.82;1.50;;;;;10.70;97147.00;;;;5031487;28;20045;-65
2023/11/06 03:55:50;;;;;;;9.70;2.75;;;;;10.80;97151.00;;;;5031369;28;20048;-65
2023/11/06 03:58:17;;;;;;;7.93;1.88;;;;;10.80;97154.00;;;;5031462;28;20129;-65
2023/11/06 04:00:44;;;;;;;10.05;1.60;;;;;10.80;97160.00;;;;5031546;28;20045;-64
2023/11/06 04:03:10;;;;;;;9.63;1.88;;;;;10.70;97155.00;;;;5033563;28;20413;-65
2023/11/06 04:05:37;;;;;;;7.63;1.50;;;;;10.80;97159.00;;;;5034843;28;20046;-65
2023/11/06 04:08:03;;;;;;;6.85;1.60;;;;;10.80;97172.00;;;;5035231;28;20053;-65
2023/11/06 04:10:30;;;;;;;4.57;1.50;;;;;10.80;97182.00;;;;5035345;28;20076;-65
2023/11/06 04:12:57;;;;;;;10.02;1.70;;;;;10.80;97177.00;;;;5035170;28;20128;-66
2023/11/06 04:15:24;;;;;;;10.75;2.25;;;;;10.80;97182.00;;;;5034092;28;20037;-65
2023/11/06 04:17:51;;;;;;;5.53;1.60;;;;;10.80;97192.00;;;;5035240;28;20575;-64
2023/11/06 04:20:18;;;;;;;6.05;1.60;;;;;10.90;97194.00;;;;5034985;28;20052;-65
2023/11/06 04:22:45;;;;;;;5.55;1.42;;;;;10.90;97194.00;;;;5035204;28;20371;-65
2023/11/06 04:25:12;;;;;;;9.18;1.80;;;;;10.90;97193.00;;;;5034429;28;20044;-65
2023/11/06 04:27:39;;;;;;;5.63;2.00;;;;;10.90;97198.00;;;;5035284;28;20045;-65
2023/11/06 04:30:07;;;;;;;4.82;1.30;;;;;10.90;97204.00;;;;5034928;28;20246;-64
2023/11/06 04:32:34;;;;;;;9.93;2.97;;;;;10.80;97210.00;;;;5034923;28;20041;-65
2023/11/06 04:35:01;;;;;;;12.35;1.95;;;;;10.80;97204.00;;;;5034103;28;20045;-64
2023/11/06 04:37:28;;;;;;;5.72;1.65;;;;;10.80;97214.00;;;;5034816;28;20120;-64
2023/11/06 04:39:54;;;;;;;5.28;1.17;;;;;10.80;97209.00;;;;5034668;28;20107;-64
2023/11/06 04:42:21;;;;;;;7.30;1.75;;;;;10.80;97214.00;;;;5034646;28;20053;-64
2023/11/06 04:44:48;;;;;;;7.32;1.60;;;;;10.90;97216.00;;;;5034003;28;20041;-65
2023/11/06 04:47:15;;;;;;;5.03;1.85;;;;;10.90;97212.00;;;;5033262;28;20140;-64
2023/11/06 04:49:41;;;;;;;8.10;1.60;;;;;10.90;97226.00;;;;5034495;28;20073;-64
2023/11/06 04:52:08;;;;;;;6.38;1.30;;;;;10.90;97234.00;;;;5034488;28;20045;-65
2023/11/06 04:54:35;;;;;;;7.40;1.83;;;;;10.90;97240.00;;;;5033765;28;20041;-65
2023/11/06 04:57:02;;;;;;;4.80;1.77;;;;;10.80;97228.00;;;;5034463;28;20473;-65
2023/11/06 04:59:28;;;;;;;8.02;1.45;;;;;10.80;97232.00;;;;5034210;28;20465;-65
2023/11/06 05:01:55;;;;;;;7.32;1.80;;;;;10.80;97233.00;;;;5034274;28;20045;-64
2023/11/06 05:04:21;;;;;;;9.50;2.10;;;;;10.80;97238.00;;;;5033894;28;20034;-65
2023/11/06 05:06:48;;;;;;;6.13;1.58;;;;;10.80;97248.00;;;;5034153;28;20111;-65
2023/11/06 05:09:15;;;;;;;5.28;1.88;;;;;10.90;97263.00;;;;5034036;28;20072;-65
2023/11/06 05:11:42;;;;;;;5.60;1.70;;;;;10.90;97261.00;;;;5034090;28;20041;-65
2023/11/06 05:14:08;;;;;;;9.48;1.63;;;;;10.90;97256.00;;;;5033016;28;20402;-65
2023/11/06 05:16:36;;;;;;;5.18;1.33;;;;;10.90;97259.00;;;;5034124;28;20045;-65
2023/11/06 05:19:03;;;;;;;8.77;1.77;;;;;10.90;97262.00;;;;5033646;28;20046;-65
2023/11/06 05:21:30;;;;;;;10.30;2.08;;;;;10.90;97275.00;;;;5033897;28;20073;-65
2023/11/06 05:23:57;;;;;;;6.10;1.80;;;;;10.90;97261.00;;;;5033485;28;20052;-65
2023/11/06 05:26:23;;;;;;;6.70;1.70;;;;;10.90;97272.00;;;;5034038;28;20041;-64
2023/11/06 05:28:50;;;;;;;6.63;1.95;;;;;10.90;97265.00;;;;5034040;28;20418;-65
2023/11/06 05:31:20;;;;;;;5.78;1.52;;;;;10.90;97261.00;;;;5034127;28;20081;-65
2023/11/06 05:33:47;;;;;;;7.63;1.88;;;;;10.80;97252.00;;;;5033257;28;20453;-65
2023/11/06 05:36:16;;;;;;;6.07;1.70;;;;;10.80;97260.00;;;;5033588;28;20053;-65
2023/11/06 05:38:44;;;;;;;10.90;1.73;;;;;10.70;97259.00;;;;5033565;28;20041;-65
2023/11/06 05:41:11;;;;;;;11.20;2.13;;;;;10.70;97268.00;;;;5032208;28;20045;-65
2023/11/06 05:43:39;;;;;;;8.40;2.17;;;;;10.70;97254.00;;;;5032923;28;20081;-64
2023/11/06 05:46:06;;;;;;;7.18;2.45;;;;;10.70;97266.00;;;;5033459;28;20037;-62
2023/11/06 05:48:33;;;;;;;9.52;2.83;;;;;10.70;97268.00;;;;5033461;28;20465;-64
2023/11/06 05:51:01;;;;;;;10.52;2.53;;;;;10.70;97265.00;;;;5033635;28;20120;-62
2023/11/06 05:53:28;;;;;;;8.77;3.00;;;;;10.70;97277.00;;;;5032862;28;20049;-63
2023/11/06 05:55:55;;;;;;;8.88;2.40;;;;;10.70;97281.00;;;;5033099;28;20045;-64
2023/11/06 05:58:22;;;;;;;10.10;3.00;;;;;10.70;97291.00;;;;5033003;28;20052;-63
2023/11/06 06:00:49;;;;;;;8.45;1.92;;;;;10.70;97285.00;;;;5033245;28;20046;-64
2023/11/06 06:03:16;;;;;;;9.05;3.03;;;;;10.60;97306.00;;;;5033073;28;20128;-64
2023/11/06 06:05:43;;;;;;;9.40;2.75;;;;;10.70;97302.00;;;;5032513;28;20037;-63
2023/11/06 06:08:11;;;;;;;7.13;2.42;;;;;10.70;97302.00;;;;5032863;28;20045;-64
2023/11/06 06:10:39;;;;;;;10.52;3.17;;;;;10.80;97306.00;;;;5032972;28;20456;-63
2023/11/06 06:13:05;;;;;;;8.82;2.38;;;;;10.80;97308.00;;;;5032974;28;20041;-63
2023/11/06 06:15:32;;;;;;;5.88;2.17;;;;;10.70;97300.00;;;;5031032;28;20045;-62
2023/11/06 06:17:59;;;;;;;11.38;2.63;;;;;10.70;97291.00;;;;5033016;28;20045;-62
2023/11/06 06:20:25;;;;;;;5.63;1.98;;;;;10.70;97307.00;;;;5032686;28;20525;-62
2023/11/06 06:22:52;;;;;;;6.65;2.20;;;;;10.70;97318.00;;;;5032658;28;20045;-62
2023/11/06 06:25:19;;;;;;;7.00;1.95;;;;;10.70;97315.00;;;;5031501;28;20117;-62
2023/11/06 06:27:46;;;;;;;9.63;2.92;;;;;10.80;97312.00;;;;5032686;28;20132;-63
2023/11/06 06:30:16;;;;;;;8.10;2.40;;;;;10.80;97312.00;;;;5032711;28;20128;-62
2023/11/06 06:32:43;;;;;;;5.95;2.25;;;;;10.80;97317.00;;;;5032779;28;20045;-62
2023/11/06 06:35:10;;;;;;;8.52;2.70;;;;;10.80;97326.00;;;;5032095;28;20045;-62
2023/11/06 06:37:37;;;;;;;9.73;3.03;;;;;10.80;97337.00;;;;5032522;28;20046;-61
2023/11/06 06:40:07;;;;;;;8.23;2.92;;;;;10.80;97338.00;;;;5032438;28;20388;-65
2023/11/06 06:42:34;;;;;;;8.73;2.70;;;;;10.80;97337.00;;;;5032373;28;20052;-62
2023/11/06 06:45:01;;;;;;;9.75;3.00;;;;;10.80;97335.00;;;;5031818;28;20033;-62
2023/11/06 06:47:28;;;;;;;8.32;2.60;;;;;10.80;97336.00;;;;5032318;28;20124;-65
2023/11/06 06:49:55;;;;;;;8.68;1.75;;;;;10.80;97335.00;;;;5032333;28;20044;-63
2023/11/06 06:52:21;;;;;;;11.90;2.97;;;;;10.80;97342.00;;;;5032255;28;20072;-62
2023/11/06 06:54:48;;;;;;;5.18;2.47;;;;;10.80;97356.00;;;;5031549;28;20108;-64
2023/11/06 06:57:15;;;;;;;4.85;1.80;;;;;10.80;97351.00;;;;5032128;28;20133;-62
2023/11/06 06:59:41;;;;;;;6.15;2.30;;;;;10.90;97369.00;;;;5030885;28;20049;-62
2023/11/06 07:02:08;;;;;;;6.68;2.38;;;;;10.90;97352.00;;;;5030844;28;20525;-64
2023/11/06 07:04:37;;;;;;;9.20;2.42;;;;;10.90;97359.00;;;;5031594;28;20120;-62
2023/11/06 07:07:06;;;;;;;7.68;2.00;;;;;10.90;97358.00;;;;5032121;28;20046;-63
2023/11/06 07:09:33;;;;;;;6.28;1.95;;;;;11.00;97367.00;;;;5032027;28;20493;-64
2023/11/06 07:12:02;;;;;;;9.00;2.35;;;;;11.00;97372.00;;;;5030939;28;20106;-62
2023/11/06 07:14:30;;;;;;;9.55;3.20;;;;;11.10;97370.00;;;;5031485;28;20060;-63
2023/11/06 07:17:03;;;;;;;8.07;2.67;;;;;11.10;97376.00;;;;5030848;28;20582;-62
2023/11/06 07:19:31;;;;;;;6.43;2.45;;;;;11.20;97377.00;;;;5031726;28;20136;-63
2023/11/06 07:21:58;;;;;;;11.43;2.08;;;;;11.30;97389.00;;;;5030836;28;20037;-63
2023/11/06 07:24:27;;;;;;;5.65;1.98;;;;;11.30;97385.00;;;;5031303;28;20107;-66
2023/11/06 07:26:55;;;;;;;12.10;2.22;;;;;11.30;97385.00;;;;5031644;28;20045;-63
2023/11/06 07:29:23;;;;;;;8.10;1.83;;;;;11.40;97389.00;;;;5031713;28;20052;-63
2023/11/06 07:31:50;;;;;;;7.63;1.95;;;;;11.50;97401.00;;;;5032459;28;20124;-63
2023/11/06 07:34:18;;;;;;;12.27;2.92;;;;;11.60;97393.00;;;;5032229;28;20661;-62
2023/11/06 07:36:49;;;;;;;8.32;2.67;;;;;11.60;97402.00;;;;5034478;28;20601;-63
2023/11/06 07:39:15;;;;;;;10.75;2.80;;;;;11.60;97397.00;;;;5038275;28;20124;-62
2023/11/06 07:41:42;;;;;;;7.13;2.25;;;;;11.60;97405.00;;;;5039541;28;20493;-63
2023/11/06 07:44:09;;;;;;;14.02;3.42;;;;;11.60;97412.00;;;;5037226;28;20077;-63
2023/11/06 07:46:35;;;;;;;12.93;2.83;;;;;11.60;97405.00;;;;5038852;28;20044;-63
2023/11/06 07:49:03;;;;;;;10.13;2.53;;;;;11.60;97411.00;;;;5038387;28;20337;-63
2023/11/06 07:51:30;;;;;;;6.80;2.10;;;;;11.60;97420.00;;;;5037729;28;20175;-62
2023/11/06 07:53:56;;;;;;;7.68;2.70;;;;;11.60;97416.00;;;;5036520;28;20076;-63
2023/11/06 07:56:23;;;;;;;9.48;2.05;;;;;11.60;97418.00;;;;5035752;28;20045;-62
2023/11/06 07:58:50;;;;;;;9.85;3.40;;;;;11.60;97425.00;;;;5035505;28;20393;-65
2023/11/06 08:01:16;;;;;;;5.05;1.60;;;;;11.60;97430.00;;;;5035536;28;20045;-64
2023/11/06 08:03:44;;;;;;;6.90;2.05;;;;;11.60;97425.00;;;;5033803;28;20054;-64
2023/11/06 08:06:12;;;;;;;8.13;2.92;;;;;11.60;97428.00;;;;5034228;28;20498;-63
2023/11/06 08:08:40;;;;;;;6.85;2.25;;;;;11.60;97435.00;;;;5034070;28;20068;-64
2023/11/06 08:11:07;;;;;;;6.18;2.22;;;;;11.60;97442.00;;;;5034182;28;20053;-63
2023/11/06 08:13:34;;;;;;;9.98;2.45;;;;;11.60;97440.00;;;;5033768;28;20053;-63
2023/11/06 08:16:03;;;;;;;11.07;2.25;;;;;11.60;97445.00;;;;5035480;28;20104;-63
2023/11/06 08:18:32;;;;;;;5.72;1.73;;;;;11.60;97449.00;;;;5035577;28;20053;-64
2023/11/06 08:21:00;;;;;;;10.40;2.42;;;;;11.70;97448.00;;;;5034295;28;20046;-63
2023/11/06 08:23:27;;;;;;;8.15;2.00;;;;;11.70;97451.00;;;;5035146;28;20648;-67
2023/11/06 08:25:54;;;;;;;9.00;2.03;;;;;11.70;97448.00;;;;5035224;28;20046;-62
2023/11/06 08:28:22;;;;;;;7.60;2.55;;;;;11.70;97455.00;;;;5035351;28;20506;-65
2023/11/06 08:30:50;;;;;;;4.82;1.38;;;;;11.80;97459.00;;;;5036880;28;20049;-63
2023/11/06 08:33:17;;;;;;;7.22;2.20;;;;;11.80;97459.00;;;;5045331;28;20109;-62
2023/11/06 08:35:45;;;;;;;6.35;1.55;;;;;11.80;97467.00;;;;5043757;28;20050;-63
2023/11/06 08:38:13;;;;;;;10.70;1.92;;;;;11.80;97463.00;;;;5044438;28;20056;-63
2023/11/06 08:40:39;;;;;;;5.40;1.67;;;;;11.80;97462.00;;;;5046246;28;20050;-64
2023/11/06 08:43:06;;;;;;;6.35;1.70;;;;;11.80;97475.00;;;;5046634;28;20053;-63
2023/11/06 08:45:33;;;;;;;9.10;1.70;;;;;12.00;97474.00;;;;5047036;28;20061;-63
2023/11/06 08:48:00;;;;;;;5.55;1.70;;;;;12.10;97473.00;;;;5037180;28;20075;-64
2023/11/06 08:50:29;;;;;;;8.68;1.75;;;;;12.10;97464.00;;;;5036284;28;20053;-63
2023/11/06 08:52:56;;;;;;;7.57;1.50;;;;;12.10;97472.00;;;;5039691;28;20092;-64
2023/11/06 08:55:23;;;;;;;4.22;1.60;;;;;12.30;97467.00;;;;5038280;28;20124;-63
2023/11/06 08:57:50;;;;;;;7.50;1.90;;;;;12.40;97476.00;;;;5036726;28;20051;-64
2023/11/06 09:00:17;;;;;;;6.43;1.63;;;;;12.40;97478.00;;;;5036003;28;20592;-63
2023/11/06 09:02:43;;;;;;;7.32;1.70;;;;;12.50;97482.00;;;;5035596;28;20045;-63
2023/11/06 09:05:13;;;;;;;5.18;1.67;;;;;12.60;97467.00;;;;5033632;28;20042;-63
2023/11/06 09:07:39;;;;;;;7.80;1.90;;;;;12.60;97478.00;;;;5035888;28;20077;-63
2023/11/06 09:10:07;;;;;;;8.85;1.70;;;;;12.60;97490.00;;;;5036645;28;20580;-65
2023/11/06 09:12:34;;;;;;;6.47;1.52;;;;;12.60;97492.00;;;;5036813;28;20045;-62
2023/11/06 09:15:01;;;;;;;7.50;2.17;;;;;12.60;97490.00;;;;5035921;28;20073;-63
2023/11/06 09:17:27;;;;;;;5.80;1.65;;;;;12.50;97491.00;;;;5035516;28;20131;-62
2023/11/06 09:19:54;;;;;;;5.25;1.25;;;;;12.50;97490.00;;;;5018330;28;20464;-63
2023/11/06 09:22:21;;;;;;;6.28;1.35;;;;;12.50;97496.00;;;;5036605;28;20104;-63
2023/11/06 09:24:49;;;;;;;6.78;1.20;;;;;12.60;97496.00;;;;5037652;28;20449;-65
2023/11/06 09:27:15;;;;;;;9.43;1.27;;;;;12.60;97488.00;;;;5034943;28;20099;-63
2023/11/06 09:29:42;;;;;;;9.25;1.83;;;;;12.60;97498.00;;;;5034480;28;20116;-63
2023/11/06 09:32:09;;;;;;;11.45;1.90;;;;;12.70;97498.00;;;;5034105;28;20053;-64
2023/11/06 09:34:38;;;;;;;6.47;1.58;;;;;12.70;97505.00;;;;5033586;28;20048;-63
2023/11/06 09:37:04;;;;;;;8.45;1.52;;;;;12.80;97502.00;;;;5033781;28;20483;-63
2023/11/06 09:39:31;;;;;;;7.50;1.67;;;;;12.90;97515.00;;;;5032703;28;20045;-65
2023/11/06 09:41:58;;;;;;;6.38;1.30;;;;;12.90;97521.00;;;;5034020;28;20045;-64
2023/11/06 09:44:24;;;;;;;8.45;1.50;;;;;12.90;97514.00;;;;5033656;28;20128;-64
2023/11/06 09:46:51;;;;;;;7.80;1.67;;;;;13.00;97516.00;;;;5033678;28;20042;-66
2023/11/06 09:49:26;;;;;;;5.45;1.48;;;;;13.00;97521.00;;;;5033895;28;20077;-65
2023/11/06 09:51:53;;;;;;;3.42;1.20;;;;;13.00;97519.00;;;;5033670;28;20083;-64
2023/11/06 09:54:20;;;;;;;5.30;1.20;;;;;13.10;97522.00;;;;5032780;28;20048;-66
2023/11/06 09:56:47;;;;;;;4.47;2.03;;;;;13.20;97524.00;;;;5032090;28;20069;-64
2023/11/06 09:59:15;;;;;;;5.63;1.13;;;;;13.20;97524.00;;;;5032965;28;20049;-66
2023/11/06 10:01:42;;;;;;;5.88;0.88;;;;;13.20;97518.00;;;;5031393;28;20052;-64
2023/11/06 10:04:09;;;;;;;4.25;1.20;;;;;13.40;97531.00;;;;5032602;28;20300;-64
2023/11/06 10:06:36;;;;;;;6.53;1.10;;;;;13.40;97527.00;;;;5031910;28;20519;-62
2023/11/06 10:09:19;;;;;;;4.68;1.30;;;;;13.40;97519.00;;;;5015467;28;20144;-63
2023/11/06 10:11:46;;;;;;;2.67;1.00;;;;;13.60;97529.00;;;;5033198;28;20120;-63
2023/11/06 10:14:13;;;;;;;7.93;1.10;;;;;13.80;97531.00;;;;5032358;28;20049;-63
2023/11/06 10:16:40;;;;;;;5.35;1.08;;;;;13.90;97519.00;;;;5031658;28;20363;-63
2023/11/06 10:19:12;;;;;;;5.47;1.20;;;;;13.90;97528.00;;;;5032605;28;20130;-65
2023/11/06 10:21:49;;;;;;;3.08;1.00;;;;;14.10;97520.00;;;;5110047;27;20953;-63
2023/11/06 10:24:16;;;;;;;5.30;0.93;;;;;14.00;97502.00;;;;5109591;28;20043;-61
2023/11/06 10:26:43;;;;;;;4.03;1.10;;;;;14.10;97512.00;;;;5109960;28;20058;-63
2023/11/06 10:29:10;;;;;;;6.63;1.40;;;;;14.30;97505.00;;;;5110098;28;20092;-63
2023/11/06 10:31:39;;;;;;;9.88;1.60;;;;;14.40;97513.00;;;;5109887;28;20466;-63
2023/11/06 10:34:32;;;;;;;9.05;1.02;;;;;14.50;97510.00;;;;5108365;28;20142;-63
2023/11/06 10:37:10;;;;;;;3.67;1.23;;;;;14.80;97496.00;;;;5108443;28;20483;-63
2023/11/06 10:39:59;;;;;;;5.70;1.15;;;;;14.90;97500.00;;;;5109762;28;20067;-63
2023/11/06 10:42:26;;;;;;;5.15;1.20;;;;;15.00;97496.00;;;;5109894;28;20047;-63
2023/11/06 10:44:58;;;;;;;3.55;1.00;;;;;15.10;97500.00;;;;5109245;28;20180;-63
2023/11/06 10:47:36;;;;;;;5.55;1.35;;;;;14.90;97509.00;;;;5109575;28;20040;-65
2023/11/06 10:50:11;;;;;;;6.03;1.38;;;;;14.60;97497.00;;;;5108228;28;20046;-63
2023/11/06 10:52:39;;;;;;;7.85;1.55;;;;;14.60;97495.00;;;;5109591;28;20044;-63
2023/11/06 10:55:08;;;;;;;5.93;1.60;;;;;14.60;97487.00;;;;5108725;28;20527;-63
2023/11/06 10:57:51;;;;;;;4.07;1.52;;;;;14.60;97492.00;;;;5109439;28;20039;-62
2023/11/06 11:00:20;;;;;;;2.67;1.10;;;;;14.60;97494.00;;;;5109197;28;20039;-63
2023/11/06 11:02:54;;;;;;;4.75;1.33;;;;;14.70;97488.00;;;;5109230;28;20047;-63
2023/11/06 11:05:24;;;;;;;3.03;0.90;;;;;14.60;97495.00;;;;5107402;28;20039;-63
2023/11/06 11:07:53;;;;;;;2.75;1.00;;;;;14.60;97491.00;;;;5109153;28;20119;-63
2023/11/06 11:10:22;;;;;;;5.25;1.20;;;;;14.60;97489.00;;;;5108976;28;20036;-63
2023/11/06 11:12:51;;;;;;;3.40;1.10;;;;;14.60;97496.00;;;;5109338;28;20424;-64
2023/11/06 11:15:26;;;;;;;7.45;1.35;;;;;14.60;97473.00;;;;5108331;28;20130;-64
2023/11/06 11:18:09;;;;;;;4.10;0.98;;;;;14.40;97488.00;;;;5108818;28;20040;-64
2023/11/06 11:20:53;;;;;;;2.47;1.10;;;;;14.40;97488.00;;;;5108785;28;20562;-64
2023/11/06 11:23:39;;;;;;;4.88;1.33;;;;;14.60;97481.00;;;;5108769;28;20139;-64
2023/11/06 11:26:09;;;;;;;5.60;1.20;;;;;14.60;97486.00;;;;5109002;28;20122;-66
2023/11/06 11:28:54;;;;;;;9.43;1.70;;;;;14.60;97476.00;;;;5108968;28;20059;-65
2023/11/06 11:31:31;;;;;;;4.95;1.75;;;;;14.80;97477.00;;;;5105523;28;20454;-63
2023/11/06 11:33:57;;;;;;;3.17;0.90;;;;;14.90;97469.00;;;;5094589;28;20068;-62
2023/11/06 11:36:35;;;;;;;4.35;1.23;;;;;14.80;97466.00;;;;5093609;28;20105;-62
2023/11/06 11:39:06;;;;;;;2.17;1.00;;;;;14.80;97462.00;;;;5095070;28;20067;-62
2023/11/06 11:41:33;;;;;;;4.72;1.80;;;;;15.10;97461.00;;;;5093584;28;20044;-63
2023/11/06 11:44:10;;;;;;;3.80;1.00;;;;;15.30;97463.00;;;;5094365;28;20043;-63
2023/11/06 11:46:47;;;;;;;7.30;1.10;;;;;15.10;97466.00;;;;5095033;28;20052;-63
2023/11/06 11:49:43;;;;;;;6.07;1.08;;;;;15.00;97467.00;;;;5094835;28;20463;-63
2023/11/06 11:52:19;;;;;;;3.78;1.10;;;;;15.00;97461.00;;;;5094785;28;20564;-64
2023/11/06 11:54:45;;;;;;;4.88;1.50;;;;;14.90;97461.00;;;;5094263;28;20052;-64
2023/11/06 11:57:12;;;;;;;3.28;1.02;;;;;14.80;97468.00;;;;5094877;28;20109;-63
2023/11/06 11:59:50;;;;;;;4.00;0.88;;;;;14.80;97472.00;;;;5094672;28;20078;-63
2023/11/06 12:02:26;;;;;;;3.38;1.27;;;;;14.70;97467.00;;;;5094577;28;20040;-63
2023/11/06 12:05:17;;;;;;;5.93;2.60;;;;;14.70;97464.00;;;;5093817;28;20048;-63
2023/11/06 12:07:44;;;;;;;2.95;1.25;;;;;14.60;97473.00;;;;5094532;28;20061;-63
2023/11/06 12:10:15;;;;;;;2.95;1.52;;;;;14.50;97472.00;;;;5093178;28;20172;-63
2023/11/06 12:12:41;;;;;;;3.15;1.27;;;;;14.40;97475.00;;;;5094372;28;20444;-63
2023/11/06 12:15:10;;;;;;;5.80;1.98;;;;;14.40;97476.00;;;;5093696;28;20566;-63
2023/11/06 12:17:37;;;;;;;3.60;1.70;;;;;14.40;97478.00;;;;5094427;28;20039;-63
2023/11/06 12:20:09;;;;;;;1.83;0.85;;;;;14.40;97471.00;;;;5094000;28;20050;-63
2023/11/06 12:22:51;;;;;;;2.88;1.73;;;;;14.50;97475.00;;;;5094284;28;20047;-63